createdAt,value
2018-01-26T00:01:31.324Z,96.58
2018-01-26T00:03:59.126Z,97.17
2018-01-26T00:06:26.565Z,97.02
2018-01-26T00:08:54.000Z,97.05
2018-01-26T00:11:21.466Z,100.00
2018-01-26T00:13:48.937Z,100.00
2018-01-26T00:16:16.390Z,100.00
2018-01-26T00:18:43.882Z,100.00
2018-01-26T00:21:11.336Z,100.00
2018-01-26T00:23:38.806Z,100.00
2018-01-26T00:26:06.293Z,100.00
2018-01-26T00:28:33.757Z,100.00
2018-01-26T00:31:01.229Z,100.00
2018-01-26T00:33:28.842Z,100.00
2018-01-26T00:35:56.356Z,100.00
2018-01-26T00:44:28.890Z,100.00
2018-01-26T00:46:56.425Z,100.00
2018-01-26T00:49:24.101Z,100.00
2018-01-26T00:51:51.620Z,100.00
2018-01-26T00:54:19.098Z,100.00
2018-01-26T00:56:46.549Z,100.00
2018-01-26T00:59:14.954Z,100.00
2018-01-26T01:01:42.508Z,100.00
2018-01-26T01:04:11.930Z,100.00
2018-01-26T01:06:39.394Z,100.00
2018-01-26T01:09:06.863Z,100.00
2018-01-26T01:11:34.360Z,100.00
2018-01-26T01:14:01.837Z,100.00
2018-01-26T01:16:29.463Z,100.00
2018-01-26T01:18:56.984Z,100.00
2018-01-26T01:21:28.230Z,100.00
2018-01-26T01:23:56.054Z,100.00
2018-01-26T01:26:24.267Z,100.00
2018-01-26T01:28:51.737Z,100.00
2018-01-26T01:31:19.274Z,100.00
2018-01-26T01:33:46.737Z,100.00
2018-01-26T01:36:14.206Z,100.00
2018-01-26T01:38:41.632Z,100.00
2018-01-26T01:41:09.090Z,100.00
2018-01-26T01:43:36.558Z,100.00
2018-01-26T01:46:04.037Z,100.00
2018-01-26T01:48:31.510Z,100.00
2018-01-26T01:50:58.986Z,100.00
2018-01-26T01:53:26.422Z,100.00
2018-01-26T01:55:54.349Z,100.00
2018-01-26T01:58:21.792Z,100.00
2018-01-26T02:00:49.249Z,100.00
2018-01-26T02:03:16.698Z,100.00
2018-01-26T02:05:44.150Z,100.00
2018-01-26T02:08:11.599Z,100.00
2018-01-26T02:10:39.078Z,100.00
2018-01-26T02:13:06.536Z,100.00
2018-01-26T02:15:33.976Z,100.00
2018-01-26T02:18:01.466Z,100.00
2018-01-26T02:20:28.954Z,100.00
2018-01-26T02:22:56.410Z,100.00
2018-01-26T02:25:41.216Z,100.00
2018-01-26T02:28:08.673Z,100.00
2018-01-26T02:30:36.135Z,100.00
2018-01-26T02:33:03.602Z,100.00
2018-01-26T02:35:31.044Z,100.00
2018-01-26T02:38:16.081Z,100.00
2018-01-26T02:40:43.524Z,100.00
2018-01-26T02:43:11.003Z,100.00
2018-01-26T02:45:38.470Z,100.00
2018-01-26T02:48:05.952Z,100.00
2018-01-26T02:50:33.393Z,100.00
2018-01-26T02:53:00.854Z,100.00
2018-01-26T02:55:28.323Z,100.00
2018-01-26T02:57:55.877Z,100.00
2018-01-26T03:00:23.318Z,100.00
2018-01-26T03:02:50.857Z,100.00
2018-01-26T03:05:18.318Z,100.00
2018-01-26T03:07:45.782Z,100.00
2018-01-26T03:10:13.231Z,100.00
2018-01-26T03:12:40.697Z,100.00
2018-01-26T03:15:08.137Z,100.00
2018-01-26T03:17:35.582Z,100.00
2018-01-26T03:20:03.039Z,100.00
2018-01-26T03:22:30.480Z,100.00
2018-01-26T03:24:57.977Z,100.00
2018-01-26T03:27:25.454Z,100.00
2018-01-26T03:29:53.046Z,100.00
2018-01-26T03:32:20.493Z,100.00
2018-01-26T03:34:47.963Z,100.00
2018-01-26T03:37:15.446Z,100.00
2018-01-26T03:39:42.936Z,100.00
2018-01-26T03:42:10.377Z,100.00
2018-01-26T03:44:37.857Z,100.00
2018-01-26T03:47:06.326Z,100.00
2018-01-26T03:49:33.780Z,91.18
2018-01-26T03:52:01.230Z,100.00
2018-01-26T03:54:28.697Z,100.00
2018-01-26T03:56:56.169Z,100.00
2018-01-26T03:59:23.670Z,100.00
2018-01-26T04:01:51.114Z,100.00
2018-01-26T04:04:18.578Z,100.00
2018-01-26T04:06:46.058Z,100.00
2018-01-26T04:09:13.539Z,100.00
2018-01-26T04:11:41.113Z,100.00
2018-01-26T04:14:08.607Z,100.00
2018-01-26T04:16:36.085Z,90.85
2018-01-26T04:19:03.623Z,90.37
2018-01-26T04:21:31.089Z,89.36
2018-01-26T04:23:58.551Z,91.26
2018-01-26T04:26:26.084Z,88.81
2018-01-26T04:28:53.681Z,88.87
2018-01-26T04:31:21.248Z,88.28
2018-01-26T04:33:48.732Z,90.51
2018-01-26T04:36:16.258Z,90.29
2018-01-26T04:38:43.830Z,89.52
2018-01-26T04:41:11.324Z,89.00
2018-01-26T04:43:38.840Z,90.53
2018-01-26T04:46:06.281Z,90.69
2018-01-26T04:48:33.708Z,90.16
2018-01-26T04:51:01.152Z,91.47
2018-01-26T04:53:28.585Z,90.13
2018-01-26T04:55:56.037Z,89.66
2018-01-26T04:58:23.481Z,89.58
2018-01-26T05:00:50.920Z,89.56
2018-01-26T05:03:18.676Z,89.67
2018-01-26T05:05:46.141Z,89.19
2018-01-26T05:08:13.842Z,88.87
2018-01-26T05:10:41.323Z,89.05
2018-01-26T05:13:09.095Z,89.48
2018-01-26T05:15:36.585Z,88.36
2018-01-26T05:18:04.211Z,88.40
2018-01-26T05:20:31.659Z,88.68
2018-01-26T05:36:01.913Z,91.12
2018-01-26T05:38:29.362Z,90.74
2018-01-26T05:40:56.898Z,88.68
2018-01-26T05:43:24.351Z,90.40
2018-01-26T05:45:51.787Z,87.07
2018-01-26T05:48:20.275Z,89.91
2018-01-26T05:50:47.715Z,89.35
2018-01-26T05:53:15.337Z,88.77
2018-01-26T05:55:42.772Z,87.87
2018-01-26T05:58:10.246Z,90.29
2018-01-26T06:00:37.781Z,89.19
2018-01-26T06:03:05.311Z,90.54
2018-01-26T06:05:32.754Z,90.78
2018-01-26T06:08:01.310Z,90.81
2018-01-26T06:10:28.752Z,89.99
2018-01-26T06:12:57.080Z,90.17
2018-01-26T06:15:24.540Z,90.33
2018-01-26T06:17:51.978Z,90.80
2018-01-26T06:20:20.465Z,90.91
2018-01-26T06:22:47.921Z,90.69
2018-01-26T06:25:15.370Z,93.55
2018-01-26T06:27:42.885Z,91.45
2018-01-26T06:30:10.363Z,90.50
2018-01-26T06:32:38.034Z,88.86
2018-01-26T06:35:05.538Z,89.47
2018-01-26T06:37:33.018Z,90.34
2018-01-26T06:40:00.470Z,89.71
2018-01-26T06:42:27.913Z,90.22
2018-01-26T06:44:55.931Z,88.31
2018-01-26T06:47:23.394Z,89.85
2018-01-26T06:49:50.854Z,88.92
2018-01-26T06:52:18.312Z,90.34
2018-01-26T06:54:45.897Z,89.98
2018-01-26T06:57:13.368Z,89.07
2018-01-26T06:59:40.835Z,91.17
2018-01-26T07:02:08.355Z,89.60
2018-01-26T07:04:35.817Z,88.40
2018-01-26T07:07:03.263Z,88.37
2018-01-26T07:09:30.828Z,88.11
2018-01-26T07:11:59.197Z,88.47
2018-01-26T07:14:26.898Z,89.50
2018-01-26T07:16:54.594Z,88.62
2018-01-26T07:19:22.077Z,88.40
2018-01-26T07:21:49.488Z,89.39
2018-01-26T07:24:17.026Z,87.56
2018-01-26T07:26:45.512Z,90.25
2018-01-26T07:29:14.184Z,89.34
2018-01-26T07:31:41.732Z,89.83
2018-01-26T07:34:09.276Z,89.76
2018-01-26T07:36:36.721Z,89.77
2018-01-26T07:39:04.179Z,88.10
2018-01-26T07:41:31.652Z,86.86
2018-01-26T07:43:59.141Z,88.98
2018-01-26T07:46:26.637Z,88.27
2018-01-26T07:48:55.986Z,88.68
2018-01-26T07:51:23.658Z,89.87
2018-01-26T07:53:51.092Z,88.20
2018-01-26T07:56:18.519Z,87.38
2018-01-26T07:58:47.883Z,87.45
2018-01-26T08:01:17.443Z,88.65
2018-01-26T08:03:45.034Z,100.00
2018-01-26T08:06:12.475Z,89.53
2018-01-26T08:08:39.966Z,89.91
2018-01-26T08:11:07.410Z,88.15
2018-01-26T08:13:35.019Z,88.65
2018-01-26T08:16:02.565Z,89.75
2018-01-26T08:18:30.016Z,88.67
2018-01-26T08:20:57.808Z,88.93
2018-01-26T08:23:26.633Z,87.46
2018-01-26T08:25:54.221Z,86.99
2018-01-26T08:28:21.695Z,87.32
2018-01-26T08:30:49.189Z,87.45
2018-01-26T08:33:16.940Z,87.34
2018-01-26T08:35:44.388Z,86.95
2018-01-26T08:38:11.837Z,86.93
2018-01-26T08:40:39.273Z,87.53
2018-01-26T08:43:06.758Z,87.46
2018-01-26T08:45:34.258Z,87.88
2018-01-26T08:48:01.976Z,86.95
2018-01-26T08:50:29.466Z,88.21
2018-01-26T08:52:57.035Z,87.79
2018-01-26T08:55:25.117Z,86.87
2018-01-26T08:57:52.553Z,86.86
2018-01-26T09:00:20.056Z,86.80
2018-01-26T09:02:47.490Z,86.93
2018-01-26T09:05:14.941Z,87.37
2018-01-26T09:07:42.376Z,87.54
2018-01-26T09:10:09.828Z,86.32
2018-01-26T09:12:37.256Z,85.99
2018-01-26T09:15:04.875Z,85.89
2018-01-26T09:17:32.296Z,87.49
2018-01-26T09:20:00.058Z,87.85
2018-01-26T09:22:27.586Z,86.93
2018-01-26T09:24:55.054Z,85.87
2018-01-26T09:27:22.538Z,87.60
2018-01-26T09:29:50.038Z,82.58
2018-01-26T09:32:17.494Z,83.53
2018-01-26T09:34:44.917Z,84.46
2018-01-26T09:37:12.365Z,85.82
2018-01-26T09:39:39.871Z,85.22
2018-01-26T09:42:07.326Z,83.95
2018-01-26T09:44:34.760Z,85.19
2018-01-26T09:47:02.198Z,84.30
2018-01-26T09:49:29.715Z,83.45
2018-01-26T09:51:57.301Z,83.08
2018-01-26T09:54:24.819Z,82.32
2018-01-26T09:56:52.257Z,84.17
2018-01-26T09:59:19.763Z,83.82
2018-01-26T10:01:47.221Z,85.45
2018-01-26T10:04:14.678Z,83.67
2018-01-26T10:06:42.161Z,84.84
2018-01-26T10:09:09.618Z,80.69
2018-01-26T10:11:37.073Z,81.94
2018-01-26T10:14:04.569Z,82.35
2018-01-26T10:16:32.020Z,83.40
2018-01-26T10:18:59.491Z,81.20
2018-01-26T10:21:26.945Z,82.07
2018-01-26T10:23:54.426Z,83.35
2018-01-26T10:26:21.900Z,81.89
2018-01-26T10:28:49.391Z,83.16
2018-01-26T10:31:16.837Z,82.18
2018-01-26T10:33:44.313Z,81.76
2018-01-26T10:36:11.777Z,82.00
2018-01-26T10:38:39.254Z,81.79
2018-01-26T10:41:06.686Z,81.61
2018-01-26T10:43:34.113Z,82.77
2018-01-26T10:46:01.647Z,79.77
2018-01-26T10:48:29.961Z,80.77
2018-01-26T10:50:57.406Z,81.84
2018-01-26T10:53:24.905Z,81.74
2018-01-26T10:55:52.351Z,82.54
2018-01-26T10:58:19.986Z,82.08
2018-01-26T11:00:47.442Z,81.19
2018-01-26T11:03:14.987Z,80.08
2018-01-26T11:05:42.489Z,79.52
2018-01-26T11:08:10.145Z,77.58
2018-01-26T11:10:37.602Z,80.21
2018-01-26T11:13:05.032Z,82.55
2018-01-26T11:15:32.483Z,78.22
2018-01-26T11:17:59.968Z,80.13
2018-01-26T11:20:27.396Z,79.07
2018-01-26T11:22:54.852Z,78.98
2018-01-26T11:25:22.362Z,80.12
2018-01-26T11:27:49.810Z,77.47
2018-01-26T11:30:17.233Z,78.76
2018-01-26T11:32:44.693Z,79.20
2018-01-26T11:35:12.139Z,78.62
2018-01-26T11:37:39.629Z,79.62
2018-01-26T11:40:07.061Z,78.68
2018-01-26T11:42:34.510Z,79.64
2018-01-26T11:45:01.963Z,80.65
2018-01-26T11:47:29.425Z,81.10
2018-01-26T11:49:57.407Z,79.46
2018-01-26T11:52:24.918Z,80.28
2018-01-26T11:54:52.370Z,79.93
2018-01-26T11:57:19.873Z,77.43
2018-01-26T11:59:47.326Z,80.36
2018-01-26T12:02:14.811Z,78.21
2018-01-26T12:04:42.245Z,80.54
2018-01-26T12:07:09.702Z,78.46
2018-01-26T12:09:37.132Z,81.00
2018-01-26T12:12:04.612Z,77.18
2018-01-26T12:14:32.058Z,76.57
2018-01-26T12:16:59.574Z,79.85
2018-01-26T12:19:27.082Z,76.43
2018-01-26T12:21:54.535Z,78.16
2018-01-26T12:24:21.992Z,78.77
2018-01-26T12:26:49.425Z,77.66
2018-01-26T12:29:16.930Z,78.89
2018-01-26T12:31:44.710Z,79.58
2018-01-26T12:34:12.254Z,77.87
2018-01-26T12:36:39.689Z,77.92
2018-01-26T12:39:07.128Z,77.74
2018-01-26T12:41:34.578Z,78.90
2018-01-26T12:44:02.366Z,77.96
2018-01-26T12:46:29.826Z,78.30
2018-01-26T12:49:01.560Z,76.66
2018-01-26T12:51:31.548Z,77.80
2018-01-26T12:53:59.066Z,77.23
2018-01-26T12:56:27.355Z,77.78
2018-01-26T12:58:55.128Z,76.11
2018-01-26T13:01:22.655Z,77.84
2018-01-26T13:03:50.100Z,75.79
2018-01-26T13:06:17.649Z,75.86
2018-01-26T13:08:45.350Z,78.25
2018-01-26T13:11:13.003Z,78.46
2018-01-26T13:13:40.487Z,77.69
2018-01-26T13:16:08.342Z,78.35
2018-01-26T13:18:35.982Z,77.11
2018-01-26T13:21:03.472Z,77.46
2018-01-26T13:23:30.973Z,78.59
2018-01-26T13:26:00.093Z,78.55
2018-01-26T13:28:27.770Z,78.07
2018-01-26T13:30:55.262Z,74.97
2018-01-26T13:33:22.684Z,78.76
2018-01-26T13:35:50.129Z,78.67
2018-01-26T13:38:17.736Z,79.78
2018-01-26T13:40:45.209Z,77.15
2018-01-26T13:43:12.709Z,77.95
2018-01-26T13:45:40.168Z,79.49
2018-01-26T13:48:07.608Z,80.63
2018-01-26T13:50:35.058Z,78.26
2018-01-26T13:53:02.521Z,78.84
2018-01-26T13:55:30.030Z,79.89
2018-01-26T13:57:58.737Z,80.60
2018-01-26T14:00:26.226Z,82.25
2018-01-26T14:02:53.629Z,83.45
2018-01-26T14:05:21.081Z,80.89
2018-01-26T14:07:48.537Z,82.58
2018-01-26T14:10:15.978Z,86.40
2018-01-26T14:12:43.485Z,85.19
2018-01-26T14:15:10.925Z,76.25
2018-01-26T14:17:38.378Z,81.73
2018-01-26T14:20:06.199Z,83.89
2018-01-26T14:22:34.411Z,84.50
2018-01-26T14:25:01.891Z,85.23
2018-01-26T14:27:29.354Z,81.47
2018-01-26T14:29:56.783Z,84.91
2018-01-26T14:32:24.664Z,84.84
2018-01-26T14:34:52.099Z,85.05
2018-01-26T14:37:19.539Z,81.69
2018-01-26T14:39:47.001Z,82.26
2018-01-26T14:42:14.480Z,82.99
2018-01-26T14:44:41.908Z,84.86
2018-01-26T14:47:09.361Z,85.60
2018-01-26T14:49:36.805Z,84.92
2018-01-26T14:52:04.277Z,90.89
2018-01-26T14:54:31.722Z,88.44
2018-01-26T14:56:59.193Z,86.13
2018-01-26T14:59:26.627Z,88.01
2018-01-26T15:01:54.097Z,88.68
2018-01-26T15:04:21.946Z,89.53
2018-01-26T15:06:49.390Z,87.50
2018-01-26T15:09:16.889Z,88.40
2018-01-26T15:11:44.357Z,87.08
2018-01-26T15:14:11.836Z,88.97
2018-01-26T15:16:39.281Z,87.39
2018-01-26T15:19:06.778Z,87.20
2018-01-26T15:21:34.228Z,87.68
2018-01-26T15:24:01.674Z,85.73
2018-01-26T15:26:29.174Z,87.98
2018-01-26T15:28:56.742Z,87.83
2018-01-26T15:31:24.193Z,85.44
2018-01-26T15:33:51.646Z,86.81
2018-01-26T15:36:19.108Z,87.43
2018-01-26T15:38:46.606Z,86.25
2018-01-26T15:41:14.105Z,74.59
2018-01-26T15:43:41.579Z,83.47
2018-01-26T15:46:09.017Z,84.73
2018-01-26T15:48:36.457Z,84.40
2018-01-26T15:51:04.060Z,83.31
2018-01-26T15:53:31.505Z,85.28
2018-01-26T15:55:59.927Z,84.66
2018-01-26T15:58:28.951Z,84.73
2018-01-26T16:00:56.392Z,84.97
2018-01-26T16:03:23.821Z,85.14
2018-01-26T16:05:51.275Z,84.42
2018-01-26T16:08:18.721Z,84.77
2018-01-26T16:10:46.647Z,84.07
2018-01-26T16:13:14.084Z,85.49
2018-01-26T16:29:03.292Z,85.31
2018-01-26T16:31:30.752Z,85.47
2018-01-26T16:33:58.545Z,85.63
2018-01-26T16:36:26.018Z,85.63
2018-01-26T16:38:53.438Z,85.81
2018-01-26T16:41:20.889Z,84.94
2018-01-26T16:43:48.317Z,85.54
2018-01-26T16:46:15.777Z,83.62
2018-01-26T16:48:43.243Z,84.20
2018-01-26T16:51:10.729Z,85.04
2018-01-26T16:53:38.162Z,84.82
2018-01-26T16:56:05.634Z,85.39
2018-01-26T16:58:33.092Z,85.34
2018-01-26T17:01:00.543Z,85.30
2018-01-26T17:03:28.548Z,85.13
2018-01-26T17:05:56.105Z,85.79
2018-01-26T17:08:23.692Z,85.41
2018-01-26T17:10:51.147Z,85.28
2018-01-26T17:13:18.655Z,84.95
2018-01-26T17:15:46.151Z,85.10
2018-01-26T17:18:13.621Z,84.95
2018-01-26T17:20:41.096Z,84.39
2018-01-26T17:23:08.770Z,85.18
2018-01-26T17:25:36.205Z,85.60
2018-01-26T17:28:03.657Z,85.41
2018-01-26T17:30:31.274Z,85.56
2018-01-26T17:32:58.742Z,85.18
2018-01-26T17:35:26.206Z,84.90
2018-01-26T17:37:53.718Z,84.79
2018-01-26T17:40:21.275Z,85.07
2018-01-26T17:42:48.750Z,85.07
2018-01-26T17:45:16.185Z,84.31
2018-01-26T17:47:43.645Z,83.89
2018-01-26T17:50:11.142Z,84.62
2018-01-26T17:52:38.635Z,83.27
2018-01-26T17:55:06.065Z,84.57
2018-01-26T17:57:33.531Z,84.14
2018-01-26T18:00:00.972Z,84.15
2018-01-26T18:02:30.808Z,84.63
2018-01-26T18:04:58.955Z,84.52
2018-01-26T18:07:26.395Z,84.11
2018-01-26T18:09:54.624Z,84.56
2018-01-26T18:12:22.077Z,84.51
2018-01-26T18:14:49.538Z,83.97
2018-01-26T18:17:16.989Z,84.44
2018-01-26T18:19:44.441Z,84.53
2018-01-26T18:22:11.891Z,84.85
2018-01-26T18:24:39.366Z,84.92
2018-01-26T18:27:06.840Z,84.51
2018-01-26T18:29:34.294Z,84.50
2018-01-26T18:32:01.737Z,84.45
2018-01-26T18:34:29.282Z,84.44
2018-01-26T18:36:56.773Z,83.57
2018-01-26T18:39:24.228Z,83.57
2018-01-26T18:41:51.841Z,83.44
2018-01-26T18:44:19.273Z,83.55
2018-01-26T18:46:46.771Z,84.33
2018-01-26T18:49:14.245Z,83.21
2018-01-26T18:51:41.702Z,83.64
2018-01-26T18:54:09.165Z,83.82
2018-01-26T18:56:36.613Z,84.24
2018-01-26T18:59:04.047Z,84.14
2018-01-26T19:01:31.517Z,83.46
2018-01-26T19:03:59.097Z,83.63
2018-01-26T19:06:26.575Z,83.78
2018-01-26T19:08:54.006Z,84.44
2018-01-26T19:11:21.568Z,84.36
2018-01-26T19:13:49.123Z,83.30
2018-01-26T19:16:16.613Z,83.26
2018-01-26T19:18:44.050Z,82.94
2018-01-26T19:21:11.667Z,83.91
2018-01-26T19:23:39.153Z,83.69
2018-01-26T19:26:07.632Z,83.70
2018-01-26T19:28:35.108Z,83.70
2018-01-26T19:31:02.556Z,84.72
2018-01-26T19:33:30.445Z,84.41
2018-01-26T19:35:57.932Z,84.15
2018-01-26T19:38:25.385Z,84.55
2018-01-26T19:40:52.821Z,84.07
2018-01-26T19:43:20.289Z,85.21
2018-01-26T19:45:47.734Z,84.32
2018-01-26T19:48:15.203Z,83.96
2018-01-26T19:50:42.652Z,84.69
2018-01-26T19:53:10.184Z,84.93
2018-01-26T19:55:37.624Z,84.09
2018-01-26T19:58:05.078Z,84.28
2018-01-26T20:00:32.727Z,84.10
2018-01-26T20:03:12.334Z,84.40
2018-01-26T20:05:49.147Z,84.36
2018-01-26T20:08:28.751Z,84.52
2018-01-26T20:10:56.179Z,84.82
2018-01-26T20:13:27.603Z,84.23
2018-01-26T20:15:55.055Z,84.84
2018-01-26T20:18:22.584Z,84.88
2018-01-26T20:20:50.030Z,84.82
2018-01-26T20:23:17.557Z,84.76
2018-01-26T20:25:45.044Z,85.26
2018-01-26T20:28:12.499Z,85.80
2018-01-26T20:30:39.978Z,85.87
2018-01-26T20:33:07.424Z,85.26
2018-01-26T20:35:34.891Z,85.39
2018-01-26T20:38:02.348Z,85.45
2018-01-26T20:40:29.843Z,85.23
2018-01-26T20:42:57.274Z,85.16
2018-01-26T20:45:24.739Z,85.33
2018-01-26T20:47:52.204Z,85.85
2018-01-26T20:50:19.750Z,85.81
2018-01-26T20:52:47.195Z,85.14
2018-01-26T20:55:14.655Z,85.40
2018-01-26T20:57:42.130Z,85.18
2018-01-26T21:00:09.644Z,85.10
2018-01-26T21:02:37.093Z,85.20
2018-01-26T21:05:04.584Z,85.14
2018-01-26T21:07:32.017Z,85.31
2018-01-26T21:09:59.781Z,85.02
2018-01-26T21:12:27.245Z,85.29
2018-01-26T21:14:54.693Z,85.45
2018-01-26T21:17:22.195Z,85.26
2018-01-26T21:19:49.666Z,85.45
2018-01-26T21:22:17.113Z,85.65
2018-01-26T21:24:44.627Z,85.65
2018-01-26T21:27:12.174Z,85.58
2018-01-26T21:29:39.621Z,85.76
2018-01-26T21:32:07.099Z,85.04
2018-01-26T21:34:34.533Z,85.56
2018-01-26T21:37:02.006Z,85.69
2018-01-26T21:39:29.826Z,86.08
2018-01-26T21:41:57.293Z,86.01
2018-01-26T21:44:24.806Z,85.74
2018-01-26T21:46:52.286Z,85.89
2018-01-26T21:49:19.746Z,85.74
2018-01-26T21:51:47.183Z,86.13
2018-01-26T21:54:14.654Z,85.44
2018-01-26T21:56:42.173Z,84.96
2018-01-26T21:59:09.649Z,85.64
2018-01-26T22:01:37.089Z,85.63
2018-01-26T22:04:04.548Z,86.11
2018-01-26T22:06:40.645Z,85.64
2018-01-26T22:09:08.139Z,85.73
2018-01-26T22:11:36.790Z,85.60
2018-01-26T22:14:04.325Z,85.85
2018-01-26T22:16:31.905Z,85.64
2018-01-26T22:18:59.926Z,85.20
2018-01-26T22:21:27.458Z,85.08
2018-01-26T22:23:56.978Z,85.25
2018-01-26T22:26:24.454Z,85.09
2018-01-26T22:28:51.978Z,84.56
2018-01-26T22:31:19.469Z,84.80
2018-01-26T22:33:46.915Z,85.13
2018-01-26T22:36:14.370Z,85.17
2018-01-26T22:38:41.818Z,85.20
2018-01-26T22:41:09.374Z,85.22
2018-01-26T22:43:36.830Z,85.24
2018-01-26T22:46:04.300Z,84.84
2018-01-26T22:48:31.802Z,85.33
2018-01-26T22:51:00.208Z,84.65
2018-01-26T22:53:27.665Z,84.87
2018-01-26T22:55:55.117Z,84.34
2018-01-26T22:58:22.564Z,83.86
2018-01-26T23:00:50.025Z,84.88
2018-01-26T23:03:17.486Z,84.90
2018-01-26T23:05:44.998Z,84.36
2018-01-26T23:08:12.832Z,83.35
2018-01-26T23:10:40.289Z,84.74
2018-01-26T23:13:07.840Z,85.03
2018-01-26T23:15:35.312Z,84.00
2018-01-26T23:18:02.766Z,84.40
2018-01-26T23:20:30.337Z,84.27
2018-01-26T23:22:59.135Z,84.08
2018-01-26T23:25:26.912Z,84.27
2018-01-26T23:27:54.361Z,84.60
2018-01-26T23:30:21.917Z,84.91
2018-01-26T23:32:49.430Z,85.35
2018-01-26T23:35:16.984Z,85.26
2018-01-26T23:37:44.492Z,84.92
2018-01-26T23:40:11.929Z,85.10
2018-01-26T23:42:39.396Z,85.37
2018-01-26T23:45:06.845Z,84.88
2018-01-26T23:47:34.318Z,84.52
2018-01-26T23:50:01.758Z,84.58
2018-01-26T23:52:29.260Z,84.66
2018-01-26T23:54:56.786Z,84.10
2018-01-26T23:57:24.241Z,84.08
2018-01-26T23:59:51.756Z,85.01
